Time;durP1;ratioP1;P1;durP2;ratioP2;P2;SDS_P1;SDS_P2;PMS_P1;PMS_P2;Temp;Humidity;BMP_temperature;BMP_pressure;BME280_temperature;BME280_humidity;BME280_pressure;Samples;Min_cycle;Max_cycle;Signal;HPM_P1;HPM_P2
2023/10/04 00:02:19;;;;;;;;;0.67;0.67;;;;;13.47;100.00;102826.66;5019176;28;45400;-75
2023/10/04 00:04:46;;;;;;;;;2.67;1.67;;;;;13.42;100.00;102812.59;5018641;28;45530;-74
2023/10/04 00:07:14;;;;;;;;;0.00;0.00;;;;;13.34;100.00;102798.66;5016641;28;46115;-75
2023/10/04 00:09:41;;;;;;;;;1.67;1.33;;;;;13.46;100.00;102820.44;5018890;28;45292;-74
2023/10/04 00:12:08;;;;;;;;;1.00;1.00;;;;;13.34;100.00;102807.50;5017500;28;45373;-75
2023/10/04 00:14:33;;;;;;;;;2.00;1.00;;;;;13.43;100.00;102823.19;5017122;28;45300;-75
2023/10/04 00:17:01;;;;;;;;;1.00;0.00;;;;;13.30;100.00;102812.91;5017349;28;45489;-75
2023/10/04 00:19:28;;;;;;;;;2.00;2.00;;;;;13.45;100.00;102831.09;5018895;28;45960;-76
2023/10/04 00:21:53;;;;;;;;;1.00;1.00;;;;;13.30;100.00;102800.50;5015342;28;45404;-75
2023/10/04 00:24:20;;;;;;;;;4.00;1.00;;;;;13.35;100.00;102803.91;5019902;28;45349;-74
2023/10/04 00:26:46;;;;;;;;;0.00;0.00;;;;;13.23;100.00;102782.09;5020158;28;46272;-75
2023/10/04 00:29:11;;;;;;;;;1.00;1.00;;;;;13.46;100.00;102820.44;5021734;28;45390;-75
2023/10/04 00:31:39;;;;;;;;;2.00;1.00;;;;;13.46;100.00;102833.75;5019527;28;45498;-75
2023/10/04 00:34:06;;;;;;;;;1.00;1.00;;;;;13.34;100.00;102804.84;5016486;28;45493;-75
2023/10/04 00:36:33;;;;;;;;;0.67;0.67;;;;;13.30;100.00;102800.50;5020879;28;45562;-75
2023/10/04 00:38:58;;;;;;;;;3.00;1.00;;;;;13.44;100.00;102824.94;5023057;28;45767;-75
2023/10/04 00:41:24;;;;;;;;;0.00;0.00;;;;;13.32;100.00;102811.97;5023041;28;45281;-75
2023/10/04 00:43:50;;;;;;;;;1.00;1.00;;;;;13.29;100.00;102813.81;5021580;28;45305;-75
2023/10/04 00:46:20;;;;;;;;;0.00;0.00;;;;;13.23;100.00;102808.69;5024344;28;47932;-76
2023/10/04 00:48:46;;;;;;;;;1.33;1.33;;;;;13.32;100.00;102819.94;5029460;28;45458;-75
2023/10/04 00:51:13;;;;;;;;;0.67;0.67;;;;;13.23;100.00;102806.91;5019123;28;45468;-75
2023/10/04 00:53:39;;;;;;;;;1.00;1.00;;;;;13.22;100.00;102806.94;5019748;28;45771;-76
2023/10/04 00:56:08;;;;;;;;;2.67;2.33;;;;;13.11;100.00;102801.03;5020757;28;46086;-75
2023/10/04 00:58:33;;;;;;;;;0.33;0.33;;;;;13.20;100.00;102819.38;5021272;28;45473;-75
2023/10/04 01:00:58;;;;;;;;;2.67;1.33;;;;;13.14;100.00;102812.47;5021113;28;45243;-75
2023/10/04 01:03:30;;;;;;;;;3.00;1.67;;;;;13.14;100.00;102830.19;5031140;28;45402;-75
2023/10/04 01:05:57;;;;;;;;;1.33;0.00;;;;;13.11;100.00;102822.28;5021712;28;48264;-74
2023/10/04 01:08:23;;;;;;;;;1.67;0.67;;;;;12.92;100.00;102809.44;5020730;28;45390;-75
2023/10/04 01:10:50;;;;;;;;;1.00;1.00;;;;;13.03;100.00;102831.28;5020665;28;45293;-75
2023/10/04 01:13:20;;;;;;;;;2.67;1.00;;;;;12.94;100.00;102825.31;5020658;28;45492;-74
2023/10/04 01:15:46;;;;;;;;;1.00;1.00;;;;;12.84;100.00;102807.88;5019254;28;46144;-75
2023/10/04 01:18:12;;;;;;;;;3.00;2.00;;;;;12.89;100.00;102820.13;5019020;28;46191;-75
2023/10/04 01:20:40;;;;;;;;;3.67;1.00;;;;;12.84;100.00;102830.00;5019041;28;45405;-75
2023/10/04 01:23:09;;;;;;;;;1.33;1.33;;;;;12.79;100.00;102817.75;5019414;28;45335;-75
2023/10/04 01:25:39;;;;;;;;;3.33;1.00;;;;;12.75;100.00;102814.28;5018716;28;47582;-75
2023/10/04 01:28:07;;;;;;;;;1.00;1.00;;;;;12.76;100.00;102809.84;5020609;28;45497;-75
2023/10/04 01:30:33;;;;;;;;;2.00;2.00;;;;;12.86;100.00;102830.81;5020929;28;45557;-75
2023/10/04 01:33:03;;;;;;;;;4.00;3.00;;;;;12.81;100.00;102826.53;5020459;28;45325;-75
2023/10/04 01:35:29;;;;;;;;;0.33;0.00;;;;;12.89;100.00;102829.91;5032837;28;45654;-75
2023/10/04 01:37:54;;;;;;;;;4.33;2.00;;;;;12.90;100.00;102834.28;5017549;28;45609;-76
2023/10/04 01:40:25;;;;;;;;;2.00;1.00;;;;;12.91;100.00;102828.06;5020331;28;45265;-75
2023/10/04 01:42:51;;;;;;;;;1.00;1.00;;;;;12.90;100.00;102824.53;5006368;28;45434;-75
2023/10/04 01:45:18;;;;;;;;;1.00;0.00;;;;;12.78;100.00;102803.59;5021139;28;45424;-75
2023/10/04 01:47:44;;;;;;;;;3.00;1.00;;;;;12.71;100.00;102787.84;5020780;28;45319;-76
2023/10/04 01:50:10;;;;;;;;;3.00;1.00;;;;;12.63;100.00;102781.88;5018632;28;45291;-75
2023/10/04 01:52:38;;;;;;;;;3.00;2.00;;;;;12.82;100.00;102807.94;5016225;28;45749;-75
2023/10/04 01:55:10;;;;;;;;;3.00;1.33;;;;;12.82;100.00;102807.06;5020356;28;45329;-75
2023/10/04 01:57:36;;;;;;;;;2.33;1.00;;;;;12.72;100.00;102782.50;5019847;28;45309;-75
2023/10/04 02:00:02;;;;;;;;;2.00;0.67;;;;;12.60;100.00;102760.69;5020489;28;45312;-75
2023/10/04 02:02:29;;;;;;;;;2.00;1.00;;;;;12.77;100.00;102793.88;5019312;28;45495;-75
2023/10/04 02:04:55;;;;;;;;;1.33;1.33;;;;;12.81;100.00;102798.19;5022078;28;46991;-76
2023/10/04 02:07:24;;;;;;;;;0.67;0.00;;;;;12.80;100.00;102792.91;5013240;28;45515;-76
2023/10/04 02:09:52;;;;;;;;;1.00;1.00;;;;;12.84;100.00;102789.28;5023407;28;45375;-75
2023/10/04 02:12:18;;;;;;;;;1.33;1.00;;;;;12.84;100.00;102795.47;5012792;28;45784;-76
2023/10/04 02:14:45;;;;;;;;;1.00;1.00;;;;;12.83;100.00;102790.19;5021914;28;45321;-75
2023/10/04 02:17:15;;;;;;;;;3.00;3.00;;;;;12.65;100.00;102764.09;5020753;28;45438;-75
2023/10/04 02:19:40;;;;;;;;;3.33;0.00;;;;;12.72;100.00;102779.84;5018225;28;45702;-75
2023/10/04 02:22:07;;;;;;;;;4.00;2.00;;;;;12.72;100.00;102782.50;5017829;28;45279;-75
2023/10/04 02:24:32;;;;;;;;;5.00;2.67;;;;;12.81;100.00;102789.34;5019689;28;45429;-75
2023/10/04 02:27:01;;;;;;;;;1.00;1.00;;;;;12.71;100.00;102779.88;5019835;28;45538;-75
2023/10/04 02:29:27;;;;;;;;;2.67;1.00;;;;;12.59;100.00;102761.59;5018820;28;45403;-76
2023/10/04 02:31:54;;;;;;;;;4.33;1.00;;;;;12.64;100.00;102741.97;5019476;28;45482;-75
2023/10/04 02:34:21;;;;;;;;;2.00;2.00;;;;;12.81;100.00;102770.78;5018294;28;46049;-75
2023/10/04 02:36:48;;;;;;;;;2.33;1.33;;;;;12.69;100.00;102764.00;5015912;28;45441;-76
2023/10/04 02:39:13;;;;;;;;;1.67;1.00;;;;;12.74;100.00;102769.19;5019550;28;45436;-76
2023/10/04 02:41:43;;;;;;;;;5.00;3.00;;;;;12.64;100.00;102759.69;5018526;28;47160;-76
2023/10/04 02:44:08;;;;;;;;;1.00;1.00;;;;;12.81;100.00;102782.28;5019513;28;45449;-75
2023/10/04 02:46:34;;;;;;;;;3.67;3.00;;;;;12.78;100.00;102785.00;5019230;28;45210;-76
2023/10/04 02:49:01;;;;;;;;;3.00;3.00;;;;;12.78;100.00;102800.94;5018357;28;45425;-75
2023/10/04 02:51:26;;;;;;;;;3.00;3.00;;;;;12.63;100.00;102773.91;5017430;28;45361;-75
2023/10/04 02:53:51;;;;;;;;;2.67;2.33;;;;;12.79;100.00;102801.81;5017496;28;45360;-75
2023/10/04 02:56:17;;;;;;;;;4.33;4.00;;;;;12.72;100.00;102798.44;5017129;28;45333;-75
2023/10/04 02:58:42;;;;;;;;;1.33;1.33;;;;;12.78;100.00;102816.88;5018173;28;45396;-75
2023/10/04 03:01:09;;;;;;;;;4.00;1.00;;;;;12.59;100.00;102775.75;5019225;28;45768;-75
2023/10/04 03:03:35;;;;;;;;;6.00;2.33;;;;;12.65;100.00;102791.53;5019449;28;46222;-75
2023/10/04 03:06:01;;;;;;;;;2.00;2.00;;;;;12.54;100.00;102777.63;5017692;28;45330;-75
2023/10/04 03:08:27;;;;;;;;;2.00;2.00;;;;;12.65;100.00;102799.50;5019210;28;45337;-75
2023/10/04 03:10:55;;;;;;;;;5.00;3.00;;;;;12.62;100.00;102806.66;5018698;28;45380;-75
2023/10/04 03:13:27;;;;;;;;;2.00;2.00;;;;;12.52;100.00;102804.22;5017665;28;47521;-75
2023/10/04 03:15:55;;;;;;;;;3.00;2.00;;;;;12.56;100.00;102817.41;5017482;28;45367;-76
2023/10/04 03:18:25;;;;;;;;;1.33;1.33;;;;;12.44;100.00;102798.19;5011333;28;45362;-75
2023/10/04 03:21:08;;;;;;;;;2.67;2.67;;;;;12.52;100.00;102814.84;5015094;28;45443;-75
2023/10/04 03:23:35;;;;;;;;;2.00;2.00;;;;;12.44;100.00;102797.31;5012154;28;45462;-76
2023/10/04 03:26:02;;;;;;;;;2.67;2.67;;;;;12.37;100.00;102782.44;5018497;28;45382;-75
2023/10/04 03:28:32;;;;;;;;;2.00;2.00;;;;;12.29;100.00;102769.38;5017722;28;45485;-76
2023/10/04 03:31:04;;;;;;;;;4.67;2.67;;;;;12.39;100.00;102796.56;5018947;28;45468;-75
2023/10/04 03:33:33;;;;;;;;;3.33;1.00;;;;;12.39;100.00;102791.25;5017517;28;46882;-75
2023/10/04 03:35:58;;;;;;;;;2.67;2.00;;;;;12.33;100.00;102778.13;5016919;28;45737;-75
2023/10/04 03:38:25;;;;;;;;;2.67;2.00;;;;;12.35;100.00;102785.16;5018398;28;45388;-75
2023/10/04 03:40:51;;;;;;;;;2.33;1.00;;;;;12.29;100.00;102780.00;5018565;28;45412;-75
2023/10/04 03:43:17;;;;;;;;;1.00;1.00;;;;;12.37;100.00;102798.38;5018859;28;46148;-76
2023/10/04 03:45:42;;;;;;;;;3.00;3.00;;;;;12.26;100.00;102784.50;5021716;28;45402;-75
2023/10/04 03:48:18;;;;;;;;;2.33;2.33;;;;;12.30;100.00;102794.97;5018807;28;45454;-75
2023/10/04 03:50:51;;;;;;;;;2.00;1.33;;;;;12.32;100.00;102798.50;5015547;28;45456;-75
2023/10/04 03:53:20;;;;;;;;;2.00;2.00;;;;;12.31;100.00;102796.72;5016213;28;48250;-75
2023/10/04 03:55:46;;;;;;;;;1.67;1.00;;;;;12.32;100.00;102797.63;5016591;28;45378;-74
2023/10/04 03:58:12;;;;;;;;;1.00;1.00;;;;;12.22;100.00;102778.38;5017987;28;45380;-75
2023/10/04 04:00:39;;;;;;;;;1.00;1.00;;;;;12.30;100.00;102792.31;5021049;28;45487;-75
2023/10/04 04:03:05;;;;;;;;;1.00;1.00;;;;;12.34;100.00;102795.78;5022503;28;45928;-75
2023/10/04 04:05:32;;;;;;;;;1.67;1.67;;;;;12.25;100.00;102780.06;5020604;28;47111;-74
2023/10/04 04:07:58;;;;;;;;;3.67;1.00;;;;;12.36;100.00;102794.00;5021813;28;45407;-75
2023/10/04 04:10:24;;;;;;;;;5.67;1.00;;;;;12.36;100.00;102813.44;5021876;28;45346;-75
2023/10/04 04:12:50;;;;;;;;;4.33;1.00;;;;;12.38;100.00;102794.81;5022622;28;45383;-74
2023/10/04 04:15:18;;;;;;;;;2.00;2.00;;;;;12.39;100.00;102797.44;5013621;28;45428;-75
2023/10/04 04:17:47;;;;;;;;;2.00;0.67;;;;;12.31;100.00;102793.19;5022048;28;45375;-74
2023/10/04 04:20:16;;;;;;;;;1.67;1.67;;;;;12.32;100.00;102787.00;5019926;28;45456;-75
2023/10/04 04:22:50;;;;;;;;;3.00;2.00;;;;;12.35;100.00;102795.75;5020864;28;45457;-75
2023/10/04 04:25:17;;;;;;;;;1.00;1.00;;;;;12.42;100.00;102815.94;5021676;28;45302;-74
2023/10/04 04:27:44;;;;;;;;;3.33;2.00;;;;;12.24;100.00;102786.28;5021305;28;45200;-75
2023/10/04 04:30:16;;;;;;;;;3.67;2.00;;;;;12.26;100.00;102787.16;5018005;28;45567;-75
2023/10/04 04:32:44;;;;;;;;;4.00;3.00;;;;;12.22;100.00;102774.84;5020122;28;47847;-75
2023/10/04 04:35:14;;;;;;;;;3.00;2.00;;;;;12.34;100.00;102798.44;5017929;28;45455;-75
2023/10/04 04:37:40;;;;;;;;;1.33;1.33;;;;;12.44;100.00;102813.25;5018796;28;45543;-75
2023/10/04 04:40:09;;;;;;;;;2.00;1.00;;;;;12.44;100.00;102807.94;5021212;28;45377;-75
2023/10/04 04:42:42;;;;;;;;;2.00;2.00;;;;;12.41;100.00;102805.34;5019990;28;46409;-75
2023/10/04 04:45:25;;;;;;;;;1.00;1.00;;;;;12.44;100.00;102815.91;5021946;28;45227;-74
2023/10/04 04:47:51;;;;;;;;;2.00;2.00;;;;;12.31;100.00;102791.44;5021400;28;45464;-75
2023/10/04 04:50:17;;;;;;;;;3.67;1.00;;;;;12.34;100.00;102779.88;5019945;28;45370;-74
2023/10/04 04:52:44;;;;;;;;;1.33;1.33;;;;;12.37;100.00;102795.72;5019529;28;46047;-75
2023/10/04 04:55:11;;;;;;;;;2.00;2.00;;;;;12.34;100.00;102787.81;5019765;28;45464;-76
2023/10/04 04:57:37;;;;;;;;;2.00;0.00;;;;;12.35;100.00;102793.13;5027074;28;45430;-75
2023/10/04 05:00:30;;;;;;;;;2.00;2.00;;;;;12.26;100.00;102782.72;5028083;28;45593;-75
2023/10/04 05:02:48;;;;;;;;;0.33;0.33;;;;;12.41;100.00;102794.75;5020650;28;45529;-75
2023/10/04 05:05:13;;;;;;;;;3.00;2.00;;;;;12.38;100.00;102792.16;5021195;28;45394;-75
2023/10/04 05:07:40;;;;;;;;;0.33;0.00;;;;;12.36;100.00;102800.19;5021461;28;45398;-74
2023/10/04 05:10:10;;;;;;;;;2.00;1.00;;;;;12.22;100.00;102780.16;5022856;28;45437;-75
2023/10/04 05:12:37;;;;;;;;;3.67;1.00;;;;;12.30;100.00;102797.63;5032400;28;45488;-76
2023/10/04 05:15:08;;;;;;;;;2.00;2.00;;;;;12.32;100.00;102794.97;5022687;28;45423;-75
2023/10/04 05:17:33;;;;;;;;;1.00;1.00;;;;;12.24;100.00;102781.84;5015504;28;45234;-74
2023/10/04 05:19:59;;;;;;;;;3.00;3.00;;;;;12.30;100.00;102799.44;5014764;28;45496;-75
2023/10/04 05:22:24;;;;;;;;;3.67;2.00;;;;;12.07;100.00;102767.25;5017928;28;50863;-75
2023/10/04 05:24:50;;;;;;;;;2.67;2.00;;;;;12.22;100.00;102801.38;5021049;28;45514;-74
2023/10/04 05:27:15;;;;;;;;;5.00;2.00;;;;;12.28;100.00;102806.53;5019325;28;45580;-75
2023/10/04 05:29:40;;;;;;;;;3.00;2.00;;;;;12.28;100.00;102809.19;5020668;28;53136;-74
2023/10/04 05:32:06;;;;;;;;;2.33;2.00;;;;;12.24;100.00;102800.44;5035743;28;45367;-75
2023/10/04 05:34:34;;;;;;;;;4.00;2.00;;;;;12.13;100.00;102783.00;5020406;28;45519;-74
2023/10/04 05:36:59;;;;;;;;;4.33;3.00;;;;;12.21;100.00;102794.31;5016884;28;45464;-75
2023/10/04 05:39:24;;;;;;;;;1.67;1.67;;;;;12.24;100.00;102800.44;5008509;28;45562;-74
2023/10/04 05:41:50;;;;;;;;;4.00;1.33;;;;;12.29;100.00;102801.22;5019964;28;51889;-74
2023/10/04 05:44:17;;;;;;;;;2.33;1.00;;;;;12.24;100.00;102791.59;5021412;28;45209;-74
2023/10/04 05:46:44;;;;;;;;;2.67;1.00;;;;;12.28;100.00;102804.75;5019070;28;45514;-76
2023/10/04 05:49:09;;;;;;;;;7.67;1.67;;;;;12.29;100.00;102790.59;5020547;28;45352;-75
2023/10/04 05:51:35;;;;;;;;;4.00;3.67;;;;;12.13;100.00;102764.44;5018425;28;45490;-75
2023/10/04 05:54:03;;;;;;;;;4.33;3.33;;;;;12.19;100.00;102783.75;5028087;28;45386;-75
2023/10/04 05:56:29;;;;;;;;;3.67;3.67;;;;;12.11;100.00;102766.25;5013457;28;45413;-76
2023/10/04 05:58:55;;;;;;;;;4.00;2.00;;;;;12.29;100.00;102800.34;5019172;28;45490;-75
2023/10/04 06:01:21;;;;;;;;;4.00;2.00;;;;;12.27;100.00;102794.22;5019745;28;46011;-75
2023/10/04 06:03:47;;;;;;;;;4.67;2.00;;;;;12.27;100.00;102804.81;5013417;28;45341;-75
2023/10/04 06:06:12;;;;;;;;;3.00;2.00;;;;;12.23;100.00;102792.53;5013649;28;45293;-75
2023/10/04 06:08:38;;;;;;;;;4.00;3.00;;;;;12.30;100.00;102805.59;5020044;28;53612;-75
2023/10/04 06:11:05;;;;;;;;;2.33;2.33;;;;;12.07;100.00;102769.88;5023765;28;47226;-75
2023/10/04 06:13:31;;;;;;;;;4.33;2.67;;;;;12.23;100.00;102795.16;5020749;28;45486;-74
2023/10/04 06:15:57;;;;;;;;;4.33;3.00;;;;;12.19;100.00;102790.84;5035086;28;47072;-75
2023/10/04 06:18:28;;;;;;;;;4.33;2.00;;;;;12.35;100.00;102816.13;5018823;28;45510;-76
2023/10/04 06:20:53;;;;;;;;;3.00;3.00;;;;;12.36;100.00;102813.44;5013361;28;45504;-75
2023/10/04 06:23:19;;;;;;;;;5.00;2.00;;;;;12.36;100.00;102821.41;5018990;28;45411;-75
2023/10/04 06:25:46;;;;;;;;;3.67;2.00;;;;;12.35;100.00;102824.94;5018272;28;45551;-75
2023/10/04 06:28:12;;;;;;;;;3.00;2.67;;;;;12.38;100.00;102816.03;5019929;28;45420;-76
2023/10/04 06:30:39;;;;;;;;;3.67;3.67;;;;;12.38;100.00;102829.31;5019379;28;45542;-76
2023/10/04 06:33:07;;;;;;;;;7.33;3.33;;;;;12.38;100.00;102810.72;5018349;28;45599;-75
2023/10/04 06:35:33;;;;;;;;;4.00;4.00;;;;;12.35;100.00;102802.84;5022619;28;45285;-76
2023/10/04 06:38:06;;;;;;;;;6.00;3.00;;;;;12.53;100.00;102823.69;5026085;28;45299;-76
2023/10/04 06:40:32;;;;;;;;;10.00;5.67;;;;;12.43;100.00;102800.91;5026024;28;45950;-76
2023/10/04 06:43:00;;;;;;;;;4.33;2.00;;;;;12.38;100.00;102806.31;5025571;28;45385;-75
2023/10/04 06:45:26;;;;;;;;;2.33;2.00;;;;;12.60;100.00;102833.22;5024830;28;45379;-76
2023/10/04 06:47:54;;;;;;;;;6.00;4.00;;;;;12.64;100.00;102840.22;5019293;28;45530;-76
2023/10/04 06:50:28;;;;;;;;;4.67;3.00;;;;;12.69;100.00;102834.81;5019411;28;46386;-75
2023/10/04 06:52:56;;;;;;;;;6.00;3.00;;;;;12.70;100.00;102834.75;5019823;28;45413;-77
2023/10/04 06:55:22;;;;;;;;;2.00;2.00;;;;;12.73;100.00;102836.50;5019752;28;45380;-76
2023/10/04 06:57:48;;;;;;;;;4.33;2.00;;;;;12.75;100.00;102826.69;5018342;28;45624;-76
2023/10/04 07:00:17;;;;;;;;;5.00;3.00;;;;;12.70;100.00;102813.50;5019801;28;45587;-76
2023/10/04 07:02:53;;;;;;;;;5.67;3.00;;;;;12.72;100.00;102811.72;5019018;28;45352;-77
2023/10/04 07:05:22;;;;;;;;;3.00;3.00;;;;;12.77;100.00;102816.88;5019694;28;45385;-77
2023/10/04 07:07:51;;;;;;;;;4.00;3.67;;;;;12.98;100.00;102857.09;5019210;28;45483;-76
2023/10/04 07:10:20;;;;;;;;;5.67;2.33;;;;;12.99;100.00;102844.66;5021335;28;45396;-76
2023/10/04 07:12:46;;;;;;;;;4.00;4.00;;;;;13.15;100.00;102858.50;5019338;28;45668;-76
2023/10/04 07:15:12;;;;;;;;;3.00;3.00;;;;;13.03;100.00;102833.06;5020097;28;45446;-77
2023/10/04 07:17:39;;;;;;;;;5.33;2.33;;;;;13.19;100.00;102852.16;5017825;28;45522;-76
2023/10/04 07:20:13;;;;;;;;;5.67;4.00;;;;;13.31;100.00;102859.84;5018499;28;45363;-76
2023/10/04 07:22:40;;;;;;;;;3.00;3.00;;;;;13.36;100.00;102861.47;5018259;28;45353;-76
2023/10/04 07:25:07;;;;;;;;;3.33;3.00;;;;;13.39;100.00;102857.84;5019007;28;45551;-77
2023/10/04 07:27:35;;;;;;;;;6.67;1.67;;;;;13.33;100.00;102848.25;5020709;28;45402;-76
2023/10/04 07:30:01;;;;;;;;;2.33;2.00;;;;;13.35;100.00;102837.59;5019190;28;45265;-77
2023/10/04 07:32:28;;;;;;;;;5.33;3.00;;;;;13.62;100.00;102860.78;5018463;28;45399;-76
2023/10/04 07:34:53;;;;;;;;;7.00;2.00;;;;;13.70;100.00;102868.56;5017900;28;45381;-76
2023/10/04 07:37:19;;;;;;;;;2.00;2.00;;;;;13.74;100.00;102889.72;5019857;28;45657;-76
2023/10/04 07:39:44;;;;;;;;;2.00;2.00;;;;;13.75;100.00;102877.28;5019059;28;45381;-77
2023/10/04 07:42:10;;;;;;;;;5.33;3.00;;;;;13.68;100.00;102865.09;5017480;28;45380;-76
2023/10/04 07:44:36;;;;;;;;;3.00;3.00;;;;;13.74;100.00;102852.50;5019205;28;45371;-76
2023/10/04 07:47:01;;;;;;;;;5.33;3.00;;;;;13.92;100.00;102883.88;5019602;28;45484;-76
2023/10/04 07:49:29;;;;;;;;;4.00;4.00;;;;;14.05;100.00;102887.06;5005787;28;45730;-77
2023/10/04 07:51:55;;;;;;;;;4.00;2.33;;;;;14.12;100.00;102890.44;5017253;28;45234;-76
2023/10/04 07:54:20;;;;;;;;;4.67;4.67;;;;;14.12;100.00;102878.00;5018435;28;45479;-76
2023/10/04 07:56:46;;;;;;;;;4.00;4.00;;;;;14.29;100.00;102896.13;5018522;28;45450;-76
2023/10/04 07:59:12;;;;;;;;;5.33;3.67;;;;;14.35;100.00;102901.31;5019399;28;45766;-76
2023/10/04 08:01:39;;;;;;;;;4.00;4.00;;;;;14.23;100.00;102870.59;5019642;28;45254;-76
2023/10/04 08:04:07;;;;;;;;;4.00;4.00;;;;;14.45;100.00;102902.78;5019925;28;45408;-76
2023/10/04 08:06:32;;;;;;;;;3.67;3.67;;;;;14.43;100.00;102899.31;5020265;28;45416;-76
2023/10/04 08:08:57;;;;;;;;;4.00;1.67;;;;;14.57;100.00;102911.28;5019176;28;45406;-76
2023/10/04 08:11:23;;;;;;;;;3.00;2.00;;;;;14.62;100.00;102905.81;5019792;28;45497;-76
2023/10/04 08:13:48;;;;;;;;;6.00;4.00;;;;;14.65;100.00;102913.72;5020612;28;45337;-77
2023/10/04 08:16:14;;;;;;;;;3.00;3.00;;;;;14.59;100.00;102884.63;5018854;28;45400;-76
2023/10/04 08:18:39;;;;;;;;;4.33;3.00;;;;;14.66;100.00;102888.81;5019924;28;45463;-76
2023/10/04 08:21:06;;;;;;;;;4.00;3.00;;;;;14.80;100.00;102897.25;5017971;28;46328;-76
2023/10/04 08:23:32;;;;;;;;;3.67;2.67;;;;;14.90;100.00;102901.38;5017702;28;45440;-77
2023/10/04 08:25:58;;;;;;;;;7.00;2.00;;;;;14.89;100.00;102888.97;5017495;28;45298;-77
2023/10/04 08:28:23;;;;;;;;;4.00;2.00;;;;;14.99;100.00;102893.06;5017084;28;46965;-77
2023/10/04 08:30:51;;;;;;;;;6.33;2.33;;;;;15.08;100.00;102897.25;5018232;28;45325;-76
2023/10/04 08:33:19;;;;;;;;;6.00;2.67;;;;;15.09;100.00;102890.97;5018691;28;45597;-76
2023/10/04 08:35:45;;;;;;;;;3.00;3.00;;;;;15.19;100.00;102902.22;5016587;28;45337;-76
2023/10/04 08:38:10;;;;;;;;;3.33;2.00;;;;;15.29;100.00;102899.19;5017471;28;46352;-76
2023/10/04 08:40:41;;;;;;;;;3.33;1.67;;;;;15.20;100.00;102872.84;5016936;28;47003;-76
2023/10/04 08:43:10;;;;;;;;;4.67;2.67;;;;;15.27;100.00;102877.06;5019179;28;46459;-76
2023/10/04 08:45:35;;;;;;;;;2.00;2.00;;;;;15.46;100.00;102903.97;5019200;28;45606;-77
2023/10/04 08:48:02;;;;;;;;;2.67;1.00;;;;;15.50;100.00;102892.31;5022390;28;46128;-77
2023/10/04 08:50:27;;;;;;;;;6.33;5.00;;;;;15.64;100.00;102904.22;5020265;28;45312;-76
2023/10/04 08:53:00;;;;;;;;;4.00;1.67;;;;;15.73;100.00;102905.72;5020659;28;45345;-76
2023/10/04 08:55:26;;;;;;;;;4.00;3.00;;;;;15.67;100.00;102883.72;5019935;28;45735;-76
2023/10/04 08:57:53;;;;;;;;;4.00;2.67;;;;;15.82;100.00;102916.06;5021618;28;46665;-76
2023/10/04 09:00:23;;;;;;;;;5.00;2.67;;;;;15.80;100.00;102899.25;5021099;28;45335;-77
2023/10/04 09:02:50;;;;;;;;;6.67;4.33;;;;;15.78;100.00;102892.19;5019979;28;45440;-77
2023/10/04 09:05:23;;;;;;;;;3.00;2.67;;;;;15.97;100.00;102919.97;5021810;28;45235;-76
2023/10/04 09:07:50;;;;;;;;;5.00;4.00;;;;;16.06;100.00;102928.56;5009529;28;46045;-76
2023/10/04 09:10:17;;;;;;;;;5.33;5.00;;;;;16.00;95.96;102891.38;5017333;28;45282;-77
2023/10/04 09:12:43;;;;;;;;;3.00;3.00;;;;;16.12;97.84;102890.94;5019885;28;45372;-76
2023/10/04 09:15:10;;;;;;;;;5.33;4.33;;;;;16.22;99.30;102893.25;5021990;28;45526;-76
2023/10/04 09:17:47;;;;;;;;;4.00;2.67;;;;;16.23;97.44;102881.66;5014341;28;46001;-76
2023/10/04 09:20:15;;;;;;;;;4.67;4.67;;;;;16.41;97.16;102903.19;5034360;28;45352;-77
2023/10/04 09:22:40;;;;;;;;;9.00;3.67;;;;;16.40;94.52;102895.22;5019197;28;45330;-76
2023/10/04 09:25:06;;;;;;;;;4.00;3.33;;;;;16.32;92.43;102878.66;5019839;28;45574;-77
2023/10/04 09:27:31;;;;;;;;;5.33;4.00;;;;;16.53;95.21;102908.06;5021781;28;46179;-76
2023/10/04 09:29:59;;;;;;;;;4.00;4.00;;;;;16.50;94.79;102884.13;5019376;28;45305;-77
2023/10/04 09:32:35;;;;;;;;;8.33;6.00;;;;;16.60;91.95;102901.59;5019699;28;45450;-77
2023/10/04 09:35:01;;;;;;;;;5.33;4.00;;;;;16.72;90.89;102905.56;5019192;28;45433;-76
2023/10/04 09:37:26;;;;;;;;;4.33;4.33;;;;;16.83;94.35;102905.16;5021502;28;45479;-77
2023/10/04 09:40:08;;;;;;;;;5.00;4.33;;;;;16.79;92.47;102880.34;5022115;28;45266;-77
2023/10/04 09:42:51;;;;;;;;;6.33;3.33;;;;;16.91;90.83;102890.56;5014746;28;45832;-78
2023/10/04 09:45:31;;;;;;;;;6.67;4.33;;;;;16.89;94.59;102875.50;5015818;28;45292;-77
2023/10/04 09:48:02;;;;;;;;;6.00;2.67;;;;;16.89;92.30;102871.03;5019358;28;47959;-77
2023/10/04 09:50:28;;;;;;;;;3.00;0.67;;;;;17.16;96.64;102891.31;5026653;28;45692;-77
2023/10/04 09:52:54;;;;;;;;;6.00;4.67;;;;;17.28;91.27;102895.25;5019031;28;45549;-77
2023/10/04 09:55:23;;;;;;;;;3.67;3.67;;;;;17.33;88.45;102892.41;5018619;28;45531;-77
2023/10/04 09:57:49;;;;;;;;;1.67;1.67;;;;;17.24;89.11;102855.34;5021296;28;48175;-77
2023/10/04 10:00:18;;;;;;;;;3.00;2.33;;;;;17.47;88.03;102884.66;5008687;28;45345;-77
2023/10/04 10:02:51;;;;;;;;;3.67;1.33;;;;;17.45;87.80;102876.69;5019944;28;45314;-77
2023/10/04 10:05:31;;;;;;;;;1.00;1.00;;;;;17.48;89.28;102876.56;5005950;28;45393;-77
2023/10/04 10:08:04;;;;;;;;;2.00;2.00;;;;;17.66;90.28;102881.16;5016389;28;46754;-76
2023/10/04 10:10:33;;;;;;;;;7.00;3.67;;;;;17.70;86.78;102868.53;5016597;28;45475;-77
2023/10/04 10:13:01;;;;;;;;;7.00;4.00;;;;;17.74;84.54;102863.88;5021412;28;45363;-78
2023/10/04 10:15:27;;;;;;;;;5.00;4.00;;;;;17.79;84.27;102876.13;5019001;28;45301;-77
2023/10/04 10:17:53;;;;;;;;;2.67;2.00;;;;;17.70;83.82;102861.34;5019328;28;45430;-77
2023/10/04 10:20:19;;;;;;;;;4.67;2.33;;;;;17.82;83.29;102867.97;5015177;28;45395;-77
2023/10/04 10:23:13;;;;;;;;;0.33;0.33;;;;;17.70;83.11;102841.75;5018174;28;45425;-78
2023/10/04 10:25:40;;;;;;;;;3.67;2.00;;;;;17.91;85.27;102859.50;5005913;28;45214;-78
2023/10/04 10:28:20;;;;;;;;;2.67;1.33;;;;;17.97;81.88;102863.72;5018648;28;45516;-78
2023/10/04 10:30:45;;;;;;;;;2.00;1.33;;;;;17.93;79.85;102867.50;5018604;28;45515;-79
2023/10/04 10:33:12;;;;;;;;;5.00;1.67;;;;;17.97;77.25;102871.75;5019047;28;45292;-78
2023/10/04 10:35:50;;;;;;;;;4.33;3.00;;;;;18.03;76.86;102883.06;5018841;28;45728;-78
2023/10/04 10:38:40;;;;;;;;;2.00;0.00;;;;;18.05;80.02;102880.31;5018457;28;45546;-78
2023/10/04 10:41:31;;;;;;;;;6.67;3.00;;;;;18.08;78.27;102875.69;5019437;28;45319;-79
2023/10/04 10:44:19;;;;;;;;;3.00;2.00;;;;;18.14;81.59;102872.72;5019650;28;45454;-78
2023/10/04 10:47:01;;;;;;;;;2.00;2.00;;;;;18.23;84.24;102852.69;5017597;28;45516;-78
2023/10/04 10:49:50;;;;;;;;;5.33;2.67;;;;;18.26;78.63;102851.69;5018550;28;46234;-78
2023/10/04 10:52:21;;;;;;;;;1.33;1.00;;;;;18.05;77.19;102818.72;5016061;28;45393;-78
2023/10/04 10:54:47;;;;;;;;;3.00;2.00;;;;;18.30;76.38;102855.94;5017442;28;45440;-78
2023/10/04 10:57:13;;;;;;;;;5.00;2.00;;;;;18.33;78.67;102862.03;5019462;28;45824;-78
2023/10/04 10:59:40;;;;;;;;;2.00;1.00;;;;;18.28;77.26;102842.63;5017532;28;47649;-77
2023/10/04 11:02:06;;;;;;;;;1.00;0.00;;;;;18.27;75.76;102835.53;5019874;28;45226;-78
2023/10/04 11:04:31;;;;;;;;;3.00;1.00;;;;;18.46;77.45;102827.47;5017914;28;45439;-78
2023/10/04 11:06:57;;;;;;;;;4.00;1.00;;;;;18.55;75.14;102840.50;5019556;28;45516;-77
2023/10/04 11:09:22;;;;;;;;;3.67;1.00;;;;;18.53;72.35;102823.59;5021239;28;45395;-79
2023/10/04 11:11:48;;;;;;;;;1.00;1.00;;;;;18.55;75.44;102811.00;5022980;28;45216;-78
2023/10/04 11:14:16;;;;;;;;;1.67;1.00;;;;;18.61;71.40;102826.78;5021116;28;45267;-78
2023/10/04 11:16:42;;;;;;;;;3.00;1.00;;;;;18.56;71.11;102810.06;5016232;28;45590;-78
2023/10/04 11:19:07;;;;;;;;;1.33;1.33;;;;;18.68;72.73;102836.28;5014677;28;46644;-78
2023/10/04 11:21:35;;;;;;;;;0.00;0.00;;;;;18.67;71.32;102843.44;5015793;28;45471;-78
2023/10/04 11:24:03;;;;;;;;;3.00;2.00;;;;;18.56;69.72;102823.44;5016498;28;45386;-78